sensor_id;sensor_type;location;lat;lon;timestamp;P1;durP1;ratioP1;P2;durP2;ratioP2
9563;SDS011;4820;50.870;4.702;2022-08-19T00:01:52;10.73;;;9.75;;
9563;SDS011;4820;50.870;4.702;2022-08-19T00:04:21;12.10;;;10.73;;
9563;SDS011;4820;50.870;4.702;2022-08-19T00:06:49;12.90;;;11.77;;
9563;SDS011;4820;50.870;4.702;2022-08-19T00:09:17;12.70;;;11.60;;
9563;SDS011;4820;50.870;4.702;2022-08-19T00:11:44;11.35;;;10.45;;
9563;SDS011;4820;50.870;4.702;2022-08-19T00:14:12;13.13;;;11.90;;
9563;SDS011;4820;50.870;4.702;2022-08-19T00:16:41;13.73;;;12.43;;
9563;SDS011;4820;50.870;4.702;2022-08-19T00:19:13;13.98;;;12.63;;
9563;SDS011;4820;50.870;4.702;2022-08-19T00:21:40;13.73;;;12.55;;
9563;SDS011;4820;50.870;4.702;2022-08-19T00:24:07;14.60;;;13.23;;
9563;SDS011;4820;50.870;4.702;2022-08-19T00:26:35;14.68;;;13.40;;
9563;SDS011;4820;50.870;4.702;2022-08-19T00:29:04;14.52;;;13.30;;
9563;SDS011;4820;50.870;4.702;2022-08-19T00:31:32;14.65;;;13.45;;
9563;SDS011;4820;50.870;4.702;2022-08-19T00:33:58;15.23;;;14.02;;
9563;SDS011;4820;50.870;4.702;2022-08-19T00:36:25;15.23;;;14.02;;
9563;SDS011;4820;50.870;4.702;2022-08-19T00:38:50;15.15;;;13.85;;
9563;SDS011;4820;50.870;4.702;2022-08-19T00:41:18;15.35;;;13.93;;
9563;SDS011;4820;50.870;4.702;2022-08-19T00:43:59;15.15;;;13.85;;
9563;SDS011;4820;50.870;4.702;2022-08-19T00:46:35;16.08;;;14.68;;
9563;SDS011;4820;50.870;4.702;2022-08-19T00:49:02;15.35;;;14.05;;
9563;SDS011;4820;50.870;4.702;2022-08-19T00:51:35;16.45;;;15.05;;
9563;SDS011;4820;50.870;4.702;2022-08-19T00:54:01;18.27;;;16.70;;
9563;SDS011;4820;50.870;4.702;2022-08-19T00:56:28;19.77;;;18.08;;
9563;SDS011;4820;50.870;4.702;2022-08-19T00:58:56;17.23;;;15.80;;
9563;SDS011;4820;50.870;4.702;2022-08-19T01:01:23;17.83;;;16.23;;
9563;SDS011;4820;50.870;4.702;2022-08-19T01:03:49;16.27;;;14.88;;
9563;SDS011;4820;50.870;4.702;2022-08-19T01:06:15;17.60;;;16.00;;
9563;SDS011;4820;50.870;4.702;2022-08-19T01:08:41;16.77;;;15.32;;
9563;SDS011;4820;50.870;4.702;2022-08-19T01:11:07;17.52;;;15.93;;
9563;SDS011;4820;50.870;4.702;2022-08-19T01:13:33;17.15;;;15.75;;
9563;SDS011;4820;50.870;4.702;2022-08-19T01:16:05;19.10;;;17.15;;
9563;SDS011;4820;50.870;4.702;2022-08-19T01:18:38;17.52;;;16.02;;
9563;SDS011;4820;50.870;4.702;2022-08-19T01:21:10;18.45;;;16.85;;
9563;SDS011;4820;50.870;4.702;2022-08-19T01:23:43;21.02;;;19.13;;
9563;SDS011;4820;50.870;4.702;2022-08-19T01:26:16;19.30;;;17.60;;
9563;SDS011;4820;50.870;4.702;2022-08-19T01:28:47;20.25;;;18.45;;
9563;SDS011;4820;50.870;4.702;2022-08-19T01:31:17;21.90;;;19.92;;
9563;SDS011;4820;50.870;4.702;2022-08-19T01:33:46;24.00;;;21.77;;
9563;SDS011;4820;50.870;4.702;2022-08-19T01:36:15;26.25;;;23.85;;
9563;SDS011;4820;50.870;4.702;2022-08-19T01:38:48;27.38;;;24.67;;
9563;SDS011;4820;50.870;4.702;2022-08-19T01:41:17;30.33;;;27.23;;
9563;SDS011;4820;50.870;4.702;2022-08-19T01:43:43;26.52;;;23.88;;
9563;SDS011;4820;50.870;4.702;2022-08-19T01:46:09;26.65;;;24.15;;
9563;SDS011;4820;50.870;4.702;2022-08-19T01:48:37;27.42;;;24.80;;
9563;SDS011;4820;50.870;4.702;2022-08-19T01:51:06;27.73;;;25.00;;
9563;SDS011;4820;50.870;4.702;2022-08-19T01:53:32;30.17;;;27.17;;
9563;SDS011;4820;50.870;4.702;2022-08-19T01:55:59;28.25;;;25.45;;
9563;SDS011;4820;50.870;4.702;2022-08-19T01:58:27;26.17;;;23.58;;
9563;SDS011;4820;50.870;4.702;2022-08-19T02:00:57;29.60;;;26.42;;
9563;SDS011;4820;50.870;4.702;2022-08-19T02:03:23;27.17;;;24.58;;
9563;SDS011;4820;50.870;4.702;2022-08-19T02:05:54;27.58;;;24.83;;
9563;SDS011;4820;50.870;4.702;2022-08-19T02:08:25;31.70;;;28.33;;
9563;SDS011;4820;50.870;4.702;2022-08-19T02:10:53;28.52;;;25.63;;
9563;SDS011;4820;50.870;4.702;2022-08-19T02:13:20;31.88;;;28.58;;
9563;SDS011;4820;50.870;4.702;2022-08-19T02:15:45;31.77;;;28.48;;
9563;SDS011;4820;50.870;4.702;2022-08-19T02:18:12;29.98;;;27.02;;
9563;SDS011;4820;50.870;4.702;2022-08-19T02:20:38;33.05;;;29.65;;
9563;SDS011;4820;50.870;4.702;2022-08-19T02:23:05;33.72;;;30.27;;
9563;SDS011;4820;50.870;4.702;2022-08-19T02:25:32;30.75;;;27.65;;
9563;SDS011;4820;50.870;4.702;2022-08-19T02:27:58;29.80;;;26.80;;
9563;SDS011;4820;50.870;4.702;2022-08-19T02:30:24;30.05;;;26.95;;
9563;SDS011;4820;50.870;4.702;2022-08-19T02:32:51;28.38;;;25.67;;
9563;SDS011;4820;50.870;4.702;2022-08-19T02:35:17;26.48;;;23.73;;
9563;SDS011;4820;50.870;4.702;2022-08-19T02:37:44;28.25;;;25.55;;
9563;SDS011;4820;50.870;4.702;2022-08-19T02:40:29;25.70;;;23.20;;
9563;SDS011;4820;50.870;4.702;2022-08-19T02:43:00;26.40;;;23.80;;
9563;SDS011;4820;50.870;4.702;2022-08-19T02:45:27;24.95;;;22.70;;
9563;SDS011;4820;50.870;4.702;2022-08-19T02:47:56;24.58;;;22.27;;
9563;SDS011;4820;50.870;4.702;2022-08-19T02:50:22;26.45;;;23.90;;
9563;SDS011;4820;50.870;4.702;2022-08-19T02:52:48;28.77;;;25.85;;
9563;SDS011;4820;50.870;4.702;2022-08-19T02:55:13;30.00;;;27.02;;
9563;SDS011;4820;50.870;4.702;2022-08-19T02:57:41;29.27;;;26.23;;
9563;SDS011;4820;50.870;4.702;2022-08-19T03:00:07;27.13;;;24.30;;
9563;SDS011;4820;50.870;4.702;2022-08-19T03:02:37;25.90;;;23.33;;
9563;SDS011;4820;50.870;4.702;2022-08-19T03:05:03;26.42;;;23.88;;
9563;SDS011;4820;50.870;4.702;2022-08-19T03:07:30;25.90;;;23.40;;
9563;SDS011;4820;50.870;4.702;2022-08-19T03:09:56;26.85;;;24.33;;
9563;SDS011;4820;50.870;4.702;2022-08-19T03:12:22;24.80;;;22.30;;
9563;SDS011;4820;50.870;4.702;2022-08-19T03:14:48;25.17;;;21.55;;
9563;SDS011;4820;50.870;4.702;2022-08-19T03:17:15;25.75;;;23.15;;
9563;SDS011;4820;50.870;4.702;2022-08-19T03:19:40;26.63;;;23.98;;
9563;SDS011;4820;50.870;4.702;2022-08-19T03:22:09;29.15;;;26.25;;
9563;SDS011;4820;50.870;4.702;2022-08-19T03:24:34;29.27;;;26.40;;
9563;SDS011;4820;50.870;4.702;2022-08-19T03:27:00;29.02;;;26.02;;
9563;SDS011;4820;50.870;4.702;2022-08-19T03:29:29;29.85;;;26.75;;
9563;SDS011;4820;50.870;4.702;2022-08-19T03:32:02;30.20;;;27.17;;
9563;SDS011;4820;50.870;4.702;2022-08-19T03:34:30;28.10;;;25.30;;
9563;SDS011;4820;50.870;4.702;2022-08-19T03:36:58;27.88;;;25.13;;
9563;SDS011;4820;50.870;4.702;2022-08-19T03:39:27;28.83;;;25.92;;
9563;SDS011;4820;50.870;4.702;2022-08-19T03:41:54;28.38;;;25.38;;
9563;SDS011;4820;50.870;4.702;2022-08-19T03:44:26;28.65;;;25.77;;
9563;SDS011;4820;50.870;4.702;2022-08-19T03:46:52;27.73;;;24.92;;
9563;SDS011;4820;50.870;4.702;2022-08-19T03:49:23;24.42;;;22.02;;
9563;SDS011;4820;50.870;4.702;2022-08-19T03:51:52;27.13;;;24.33;;
9563;SDS011;4820;50.870;4.702;2022-08-19T03:54:20;26.30;;;23.65;;
9563;SDS011;4820;50.870;4.702;2022-08-19T03:56:51;26.85;;;23.88;;
9563;SDS011;4820;50.870;4.702;2022-08-19T03:59:27;26.52;;;23.90;;
9563;SDS011;4820;50.870;4.702;2022-08-19T04:01:58;26.85;;;24.08;;
9563;SDS011;4820;50.870;4.702;2022-08-19T04:04:26;26.08;;;23.42;;
9563;SDS011;4820;50.870;4.702;2022-08-19T04:06:52;24.95;;;22.25;;
9563;SDS011;4820;50.870;4.702;2022-08-19T04:09:18;26.30;;;23.67;;
9563;SDS011;4820;50.870;4.702;2022-08-19T04:11:50;24.98;;;22.40;;
9563;SDS011;4820;50.870;4.702;2022-08-19T04:14:22;24.23;;;21.77;;
9563;SDS011;4820;50.870;4.702;2022-08-19T04:16:50;26.77;;;23.98;;
9563;SDS011;4820;50.870;4.702;2022-08-19T04:19:18;26.17;;;23.55;;
9563;SDS011;4820;50.870;4.702;2022-08-19T04:21:45;26.17;;;23.42;;
9563;SDS011;4820;50.870;4.702;2022-08-19T04:24:12;26.77;;;23.92;;
9563;SDS011;4820;50.870;4.702;2022-08-19T04:26:38;26.83;;;23.20;;
9563;SDS011;4820;50.870;4.702;2022-08-19T04:29:06;26.92;;;23.48;;
9563;SDS011;4820;50.870;4.702;2022-08-19T04:31:34;25.80;;;23.27;;
9563;SDS011;4820;50.870;4.702;2022-08-19T04:34:01;26.20;;;23.60;;
9563;SDS011;4820;50.870;4.702;2022-08-19T04:36:30;27.70;;;24.13;;
9563;SDS011;4820;50.870;4.702;2022-08-19T04:39:00;27.58;;;24.30;;
9563;SDS011;4820;50.870;4.702;2022-08-19T04:41:29;26.70;;;23.08;;
9563;SDS011;4820;50.870;4.702;2022-08-19T04:44:15;26.38;;;23.52;;
9563;SDS011;4820;50.870;4.702;2022-08-19T04:46:44;26.42;;;23.65;;
9563;SDS011;4820;50.870;4.702;2022-08-19T04:49:11;26.13;;;23.58;;
9563;SDS011;4820;50.870;4.702;2022-08-19T04:51:40;26.73;;;23.85;;
9563;SDS011;4820;50.870;4.702;2022-08-19T04:54:07;25.75;;;22.20;;
9563;SDS011;4820;50.870;4.702;2022-08-19T04:56:33;26.02;;;23.23;;
9563;SDS011;4820;50.870;4.702;2022-08-19T04:58:58;26.52;;;23.70;;
9563;SDS011;4820;50.870;4.702;2022-08-19T05:01:28;27.67;;;24.20;;
9563;SDS011;4820;50.870;4.702;2022-08-19T05:03:55;25.85;;;22.92;;
9563;SDS011;4820;50.870;4.702;2022-08-19T05:06:21;24.42;;;21.92;;
9563;SDS011;4820;50.870;4.702;2022-08-19T05:08:48;24.80;;;22.17;;
9563;SDS011;4820;50.870;4.702;2022-08-19T05:11:18;25.60;;;22.98;;
9563;SDS011;4820;50.870;4.702;2022-08-19T05:13:46;27.63;;;22.98;;
9563;SDS011;4820;50.870;4.702;2022-08-19T05:16:18;25.42;;;22.73;;
9563;SDS011;4820;50.870;4.702;2022-08-19T05:18:45;25.77;;;22.85;;
9563;SDS011;4820;50.870;4.702;2022-08-19T05:21:30;28.20;;;23.48;;
9563;SDS011;4820;50.870;4.702;2022-08-19T05:24:15;29.83;;;23.88;;
9563;SDS011;4820;50.870;4.702;2022-08-19T05:26:43;29.13;;;23.45;;
9563;SDS011;4820;50.870;4.702;2022-08-19T05:29:11;26.40;;;22.73;;
9563;SDS011;4820;50.870;4.702;2022-08-19T05:31:47;26.38;;;21.73;;
9563;SDS011;4820;50.870;4.702;2022-08-19T05:34:14;30.15;;;23.50;;
9563;SDS011;4820;50.870;4.702;2022-08-19T05:36:44;28.77;;;22.70;;
9563;SDS011;4820;50.870;4.702;2022-08-19T05:39:14;28.70;;;24.45;;
9563;SDS011;4820;50.870;4.702;2022-08-19T05:41:44;29.50;;;24.92;;
9563;SDS011;4820;50.870;4.702;2022-08-19T05:44:11;27.92;;;23.48;;
9563;SDS011;4820;50.870;4.702;2022-08-19T05:46:38;26.55;;;23.05;;
9563;SDS011;4820;50.870;4.702;2022-08-19T05:49:05;27.98;;;23.02;;
9563;SDS011;4820;50.870;4.702;2022-08-19T05:51:31;26.52;;;23.67;;
9563;SDS011;4820;50.870;4.702;2022-08-19T05:54:00;31.25;;;23.30;;
9563;SDS011;4820;50.870;4.702;2022-08-19T05:56:27;30.35;;;24.02;;
9563;SDS011;4820;50.870;4.702;2022-08-19T05:58:55;26.23;;;22.35;;
9563;SDS011;4820;50.870;4.702;2022-08-19T06:01:23;27.83;;;23.98;;
9563;SDS011;4820;50.870;4.702;2022-08-19T06:03:51;27.10;;;23.00;;
9563;SDS011;4820;50.870;4.702;2022-08-19T06:06:18;30.73;;;23.70;;
9563;SDS011;4820;50.870;4.702;2022-08-19T06:08:45;27.60;;;22.55;;
9563;SDS011;4820;50.870;4.702;2022-08-19T06:13:48;25.48;;;22.55;;
9563;SDS011;4820;50.870;4.702;2022-08-19T06:16:21;24.60;;;21.60;;
9563;SDS011;4820;50.870;4.702;2022-08-19T06:18:53;25.98;;;22.80;;
9563;SDS011;4820;50.870;4.702;2022-08-19T06:21:22;26.95;;;21.73;;
9563;SDS011;4820;50.870;4.702;2022-08-19T06:23:50;23.48;;;20.90;;
9563;SDS011;4820;50.870;4.702;2022-08-19T06:26:17;26.20;;;20.90;;
9563;SDS011;4820;50.870;4.702;2022-08-19T06:28:44;25.35;;;21.95;;
9563;SDS011;4820;50.870;4.702;2022-08-19T06:31:14;24.02;;;20.70;;
9563;SDS011;4820;50.870;4.702;2022-08-19T06:33:42;23.73;;;20.98;;
9563;SDS011;4820;50.870;4.702;2022-08-19T06:38:45;25.95;;;20.65;;
9563;SDS011;4820;50.870;4.702;2022-08-19T06:41:11;22.08;;;19.20;;
9563;SDS011;4820;50.870;4.702;2022-08-19T06:43:36;21.88;;;19.30;;
9563;SDS011;4820;50.870;4.702;2022-08-19T06:46:02;21.60;;;19.33;;
9563;SDS011;4820;50.870;4.702;2022-08-19T06:48:30;20.92;;;18.77;;
9563;SDS011;4820;50.870;4.702;2022-08-19T06:50:56;20.33;;;18.08;;
9563;SDS011;4820;50.870;4.702;2022-08-19T06:53:22;19.45;;;17.52;;
9563;SDS011;4820;50.870;4.702;2022-08-19T06:55:48;21.83;;;18.90;;
9563;SDS011;4820;50.870;4.702;2022-08-19T06:58:25;21.20;;;17.85;;
9563;SDS011;4820;50.870;4.702;2022-08-19T07:00:52;19.98;;;16.58;;
9563;SDS011;4820;50.870;4.702;2022-08-19T07:03:17;20.80;;;16.10;;
9563;SDS011;4820;50.870;4.702;2022-08-19T07:05:43;17.67;;;15.73;;
9563;SDS011;4820;50.870;4.702;2022-08-19T07:08:11;17.58;;;15.38;;
9563;SDS011;4820;50.870;4.702;2022-08-19T07:10:36;18.40;;;14.75;;
9563;SDS011;4820;50.870;4.702;2022-08-19T07:13:02;17.10;;;14.40;;
9563;SDS011;4820;50.870;4.702;2022-08-19T07:15:29;18.38;;;14.50;;
9563;SDS011;4820;50.870;4.702;2022-08-19T07:17:55;19.20;;;14.75;;
9563;SDS011;4820;50.870;4.702;2022-08-19T07:20:21;15.00;;;13.45;;
9563;SDS011;4820;50.870;4.702;2022-08-19T07:22:47;16.63;;;13.52;;
9563;SDS011;4820;50.870;4.702;2022-08-19T07:25:13;17.85;;;13.52;;
9563;SDS011;4820;50.870;4.702;2022-08-19T07:27:39;14.75;;;12.20;;
9563;SDS011;4820;50.870;4.702;2022-08-19T07:30:04;13.30;;;11.40;;
9563;SDS011;4820;50.870;4.702;2022-08-19T07:32:31;13.15;;;11.75;;
9563;SDS011;4820;50.870;4.702;2022-08-19T07:34:57;15.27;;;11.15;;
9563;SDS011;4820;50.870;4.702;2022-08-19T07:37:23;13.73;;;9.90;;
9563;SDS011;4820;50.870;4.702;2022-08-19T07:39:51;12.88;;;10.02;;
9563;SDS011;4820;50.870;4.702;2022-08-19T07:42:17;11.80;;;9.80;;
9563;SDS011;4820;50.870;4.702;2022-08-19T07:44:45;12.75;;;9.15;;
9563;SDS011;4820;50.870;4.702;2022-08-19T07:47:11;9.00;;;7.13;;
9563;SDS011;4820;50.870;4.702;2022-08-19T07:49:37;9.65;;;6.80;;
9563;SDS011;4820;50.870;4.702;2022-08-19T07:52:05;10.10;;;6.70;;
9563;SDS011;4820;50.870;4.702;2022-08-19T07:54:33;9.07;;;6.55;;
9563;SDS011;4820;50.870;4.702;2022-08-19T07:57:05;8.60;;;5.57;;
9563;SDS011;4820;50.870;4.702;2022-08-19T07:59:32;8.20;;;5.88;;
9563;SDS011;4820;50.870;4.702;2022-08-19T08:01:58;8.20;;;5.82;;
9563;SDS011;4820;50.870;4.702;2022-08-19T08:04:28;7.68;;;5.95;;
9563;SDS011;4820;50.870;4.702;2022-08-19T08:07:12;5.35;;;4.63;;
9563;SDS011;4820;50.870;4.702;2022-08-19T08:10:13;8.40;;;5.05;;
9563;SDS011;4820;50.870;4.702;2022-08-19T08:12:40;6.95;;;4.78;;
9563;SDS011;4820;50.870;4.702;2022-08-19T08:15:08;5.53;;;4.53;;
9563;SDS011;4820;50.870;4.702;2022-08-19T08:17:36;6.25;;;4.45;;
9563;SDS011;4820;50.870;4.702;2022-08-19T08:20:04;5.72;;;4.65;;
9563;SDS011;4820;50.870;4.702;2022-08-19T08:22:32;6.70;;;5.25;;
9563;SDS011;4820;50.870;4.702;2022-08-19T08:25:18;9.25;;;5.72;;
9563;SDS011;4820;50.870;4.702;2022-08-19T08:27:45;7.65;;;5.57;;
9563;SDS011;4820;50.870;4.702;2022-08-19T08:30:17;7.15;;;5.15;;
9563;SDS011;4820;50.870;4.702;2022-08-19T08:32:47;5.97;;;4.75;;
9563;SDS011;4820;50.870;4.702;2022-08-19T08:35:17;7.00;;;5.53;;
9563;SDS011;4820;50.870;4.702;2022-08-19T08:37:46;7.75;;;5.30;;
9563;SDS011;4820;50.870;4.702;2022-08-19T08:43:09;6.63;;;5.32;;
9563;SDS011;4820;50.870;4.702;2022-08-19T08:46:13;6.22;;;5.63;;
9563;SDS011;4820;50.870;4.702;2022-08-19T08:48:49;6.88;;;5.07;;
9563;SDS011;4820;50.870;4.702;2022-08-19T08:51:27;7.05;;;6.07;;
9563;SDS011;4820;50.870;4.702;2022-08-19T08:53:59;6.57;;;5.38;;
9563;SDS011;4820;50.870;4.702;2022-08-19T08:56:26;6.60;;;5.28;;
9563;SDS011;4820;50.870;4.702;2022-08-19T08:58:57;7.30;;;6.03;;
9563;SDS011;4820;50.870;4.702;2022-08-19T09:01:26;6.85;;;5.47;;
9563;SDS011;4820;50.870;4.702;2022-08-19T09:03:53;7.32;;;5.70;;
9563;SDS011;4820;50.870;4.702;2022-08-19T09:06:26;8.18;;;4.93;;
9563;SDS011;4820;50.870;4.702;2022-08-19T09:15:10;5.07;;;4.50;;
9563;SDS011;4820;50.870;4.702;2022-08-19T09:17:38;7.50;;;4.53;;
9563;SDS011;4820;50.870;4.702;2022-08-19T09:22:42;5.85;;;4.50;;
9563;SDS011;4820;50.870;4.702;2022-08-19T09:25:09;5.03;;;4.07;;
9563;SDS011;4820;50.870;4.702;2022-08-19T09:27:38;5.40;;;4.90;;
9563;SDS011;4820;50.870;4.702;2022-08-19T09:30:06;4.93;;;4.13;;
9563;SDS011;4820;50.870;4.702;2022-08-19T09:32:34;5.38;;;4.85;;
9563;SDS011;4820;50.870;4.702;2022-08-19T09:34:59;5.60;;;4.50;;
9563;SDS011;4820;50.870;4.702;2022-08-19T09:37:27;4.68;;;3.92;;
9563;SDS011;4820;50.870;4.702;2022-08-19T09:39:53;5.18;;;3.75;;
9563;SDS011;4820;50.870;4.702;2022-08-19T09:42:19;5.75;;;4.00;;
9563;SDS011;4820;50.870;4.702;2022-08-19T09:44:45;5.32;;;3.50;;
9563;SDS011;4820;50.870;4.702;2022-08-19T09:47:11;3.90;;;3.50;;
9563;SDS011;4820;50.870;4.702;2022-08-19T09:49:38;3.65;;;3.03;;
9563;SDS011;4820;50.870;4.702;2022-08-19T09:52:09;5.18;;;3.53;;
9563;SDS011;4820;50.870;4.702;2022-08-19T09:54:36;6.38;;;3.00;;
9563;SDS011;4820;50.870;4.702;2022-08-19T09:57:03;5.88;;;3.53;;
9563;SDS011;4820;50.870;4.702;2022-08-19T09:59:30;4.40;;;3.72;;
9563;SDS011;4820;50.870;4.702;2022-08-19T10:01:56;4.80;;;4.30;;
9563;SDS011;4820;50.870;4.702;2022-08-19T10:04:21;4.72;;;4.10;;
9563;SDS011;4820;50.870;4.702;2022-08-19T10:06:48;5.15;;;4.05;;
9563;SDS011;4820;50.870;4.702;2022-08-19T10:09:16;6.07;;;4.20;;
9563;SDS011;4820;50.870;4.702;2022-08-19T10:11:43;6.30;;;4.00;;
9563;SDS011;4820;50.870;4.702;2022-08-19T10:14:15;4.60;;;3.97;;
9563;SDS011;4820;50.870;4.702;2022-08-19T10:16:41;6.32;;;4.72;;
9563;SDS011;4820;50.870;4.702;2022-08-19T10:19:08;6.28;;;3.80;;
9563;SDS011;4820;50.870;4.702;2022-08-19T10:21:34;4.72;;;4.13;;
9563;SDS011;4820;50.870;4.702;2022-08-19T10:24:02;5.40;;;3.92;;
9563;SDS011;4820;50.870;4.702;2022-08-19T10:26:31;5.35;;;4.38;;
9563;SDS011;4820;50.870;4.702;2022-08-19T10:28:59;5.30;;;4.35;;
9563;SDS011;4820;50.870;4.702;2022-08-19T10:31:29;6.43;;;4.40;;
9563;SDS011;4820;50.870;4.702;2022-08-19T10:33:56;4.72;;;4.20;;
9563;SDS011;4820;50.870;4.702;2022-08-19T10:36:33;5.68;;;3.80;;
9563;SDS011;4820;50.870;4.702;2022-08-19T10:39:02;5.70;;;3.90;;
9563;SDS011;4820;50.870;4.702;2022-08-19T10:41:31;3.90;;;3.50;;
9563;SDS011;4820;50.870;4.702;2022-08-19T10:44:00;6.03;;;3.97;;
9563;SDS011;4820;50.870;4.702;2022-08-19T10:46:32;5.07;;;4.13;;
9563;SDS011;4820;50.870;4.702;2022-08-19T10:49:02;5.28;;;4.10;;
9563;SDS011;4820;50.870;4.702;2022-08-19T10:51:30;6.68;;;3.85;;
9563;SDS011;4820;50.870;4.702;2022-08-19T10:54:32;5.28;;;3.80;;
9563;SDS011;4820;50.870;4.702;2022-08-19T10:57:17;5.57;;;3.85;;
9563;SDS011;4820;50.870;4.702;2022-08-19T10:59:43;4.38;;;3.53;;
9563;SDS011;4820;50.870;4.702;2022-08-19T11:02:10;5.28;;;3.72;;
9563;SDS011;4820;50.870;4.702;2022-08-19T11:04:37;4.65;;;3.70;;
9563;SDS011;4820;50.870;4.702;2022-08-19T11:07:04;5.75;;;4.05;;
9563;SDS011;4820;50.870;4.702;2022-08-19T11:09:31;4.22;;;3.78;;
9563;SDS011;4820;50.870;4.702;2022-08-19T11:12:03;6.15;;;3.55;;
9563;SDS011;4820;50.870;4.702;2022-08-19T11:14:32;10.52;;;3.92;;
9563;SDS011;4820;50.870;4.702;2022-08-19T11:16:59;4.75;;;3.72;;
9563;SDS011;4820;50.870;4.702;2022-08-19T11:19:27;3.83;;;3.30;;
9563;SDS011;4820;50.870;4.702;2022-08-19T11:21:53;4.40;;;3.60;;
9563;SDS011;4820;50.870;4.702;2022-08-19T11:24:21;4.78;;;3.13;;
9563;SDS011;4820;50.870;4.702;2022-08-19T11:26:48;3.60;;;3.05;;
9563;SDS011;4820;50.870;4.702;2022-08-19T11:29:17;3.30;;;2.97;;
9563;SDS011;4820;50.870;4.702;2022-08-19T11:31:46;4.25;;;3.28;;
9563;SDS011;4820;50.870;4.702;2022-08-19T11:34:16;4.68;;;3.30;;
9563;SDS011;4820;50.870;4.702;2022-08-19T11:36:45;6.03;;;4.20;;
9563;SDS011;4820;50.870;4.702;2022-08-19T11:39:13;4.38;;;3.95;;
9563;SDS011;4820;50.870;4.702;2022-08-19T11:41:43;5.20;;;4.22;;
9563;SDS011;4820;50.870;4.702;2022-08-19T11:44:09;7.45;;;4.18;;
9563;SDS011;4820;50.870;4.702;2022-08-19T11:46:35;4.28;;;3.90;;
9563;SDS011;4820;50.870;4.702;2022-08-19T11:49:02;5.50;;;3.83;;
9563;SDS011;4820;50.870;4.702;2022-08-19T11:51:30;5.68;;;4.40;;
9563;SDS011;4820;50.870;4.702;2022-08-19T11:53:57;5.07;;;4.57;;
9563;SDS011;4820;50.870;4.702;2022-08-19T11:56:24;4.55;;;4.10;;
9563;SDS011;4820;50.870;4.702;2022-08-19T11:58:52;6.30;;;4.40;;
9563;SDS011;4820;50.870;4.702;2022-08-19T12:01:19;4.57;;;3.72;;
9563;SDS011;4820;50.870;4.702;2022-08-19T12:03:48;4.95;;;4.30;;
9563;SDS011;4820;50.870;4.702;2022-08-19T12:06:17;6.45;;;5.10;;
9563;SDS011;4820;50.870;4.702;2022-08-19T12:08:48;5.60;;;5.05;;
9563;SDS011;4820;50.870;4.702;2022-08-19T12:11:14;5.65;;;5.03;;
9563;SDS011;4820;50.870;4.702;2022-08-19T12:13:42;5.82;;;5.32;;
9563;SDS011;4820;50.870;4.702;2022-08-19T12:16:16;6.28;;;5.68;;
9563;SDS011;4820;50.870;4.702;2022-08-19T12:18:45;7.45;;;6.15;;
9563;SDS011;4820;50.870;4.702;2022-08-19T12:21:12;8.13;;;5.93;;
9563;SDS011;4820;50.870;4.702;2022-08-19T12:23:39;7.47;;;6.30;;
9563;SDS011;4820;50.870;4.702;2022-08-19T12:26:06;7.43;;;6.55;;
9563;SDS011;4820;50.870;4.702;2022-08-19T12:28:31;7.38;;;6.75;;
9563;SDS011;4820;50.870;4.702;2022-08-19T12:30:58;7.72;;;6.45;;
9563;SDS011;4820;50.870;4.702;2022-08-19T12:33:23;7.32;;;6.63;;
9563;SDS011;4820;50.870;4.702;2022-08-19T12:35:52;6.85;;;6.25;;
9563;SDS011;4820;50.870;4.702;2022-08-19T12:38:18;7.05;;;6.35;;
9563;SDS011;4820;50.870;4.702;2022-08-19T12:40:45;6.85;;;6.25;;
9563;SDS011;4820;50.870;4.702;2022-08-19T12:43:12;6.80;;;6.13;;
9563;SDS011;4820;50.870;4.702;2022-08-19T12:45:38;6.95;;;6.35;;
9563;SDS011;4820;50.870;4.702;2022-08-19T12:48:05;7.35;;;6.65;;
9563;SDS011;4820;50.870;4.702;2022-08-19T12:50:34;7.10;;;6.22;;
9563;SDS011;4820;50.870;4.702;2022-08-19T12:53:00;7.00;;;6.35;;
9563;SDS011;4820;50.870;4.702;2022-08-19T12:55:25;6.35;;;5.40;;
9563;SDS011;4820;50.870;4.702;2022-08-19T12:57:53;6.20;;;5.68;;
9563;SDS011;4820;50.870;4.702;2022-08-19T13:00:20;5.22;;;4.82;;
9563;SDS011;4820;50.870;4.702;2022-08-19T13:02:49;5.90;;;5.40;;
9563;SDS011;4820;50.870;4.702;2022-08-19T13:05:18;5.63;;;5.13;;
9563;SDS011;4820;50.870;4.702;2022-08-19T13:07:50;6.65;;;5.07;;
9563;SDS011;4820;50.870;4.702;2022-08-19T13:10:17;6.78;;;5.30;;
9563;SDS011;4820;50.870;4.702;2022-08-19T13:12:46;5.18;;;4.70;;
9563;SDS011;4820;50.870;4.702;2022-08-19T13:15:15;6.25;;;4.93;;
9563;SDS011;4820;50.870;4.702;2022-08-19T13:17:48;5.20;;;4.70;;
9563;SDS011;4820;50.870;4.702;2022-08-19T13:20:17;5.30;;;4.80;;
9563;SDS011;4820;50.870;4.702;2022-08-19T13:22:48;5.20;;;4.10;;
9563;SDS011;4820;50.870;4.702;2022-08-19T13:25:14;4.75;;;4.22;;
9563;SDS011;4820;50.870;4.702;2022-08-19T13:27:42;5.07;;;4.57;;
9563;SDS011;4820;50.870;4.702;2022-08-19T13:30:09;4.47;;;3.72;;
9563;SDS011;4820;50.870;4.702;2022-08-19T13:32:55;4.32;;;3.55;;
9563;SDS011;4820;50.870;4.702;2022-08-19T13:35:40;4.45;;;3.75;;
9563;SDS011;4820;50.870;4.702;2022-08-19T13:38:15;5.18;;;2.90;;
9563;SDS011;4820;50.870;4.702;2022-08-19T13:40:44;4.22;;;2.92;;
9563;SDS011;4820;50.870;4.702;2022-08-19T13:43:11;4.43;;;2.95;;
9563;SDS011;4820;50.870;4.702;2022-08-19T13:45:37;3.90;;;2.90;;
9563;SDS011;4820;50.870;4.702;2022-08-19T13:48:05;4.25;;;2.70;;
9563;SDS011;4820;50.870;4.702;2022-08-19T13:50:34;3.85;;;2.60;;
9563;SDS011;4820;50.870;4.702;2022-08-19T13:53:07;3.55;;;2.50;;
9563;SDS011;4820;50.870;4.702;2022-08-19T13:55:38;2.30;;;1.77;;
9563;SDS011;4820;50.870;4.702;2022-08-19T13:58:07;2.38;;;2.03;;
9563;SDS011;4820;50.870;4.702;2022-08-19T14:00:35;3.55;;;1.98;;
9563;SDS011;4820;50.870;4.702;2022-08-19T14:03:06;2.42;;;1.80;;
9563;SDS011;4820;50.870;4.702;2022-08-19T14:05:32;2.88;;;1.70;;
9563;SDS011;4820;50.870;4.702;2022-08-19T14:07:59;2.30;;;1.90;;
9563;SDS011;4820;50.870;4.702;2022-08-19T14:10:26;3.00;;;1.92;;
9563;SDS011;4820;50.870;4.702;2022-08-19T14:12:57;2.58;;;1.70;;
9563;SDS011;4820;50.870;4.702;2022-08-19T14:15:24;2.30;;;2.10;;
9563;SDS011;4820;50.870;4.702;2022-08-19T14:17:51;2.30;;;2.10;;
9563;SDS011;4820;50.870;4.702;2022-08-19T14:20:17;2.03;;;1.83;;
9563;SDS011;4820;50.870;4.702;2022-08-19T14:22:43;1.98;;;1.88;;
9563;SDS011;4820;50.870;4.702;2022-08-19T14:25:12;3.20;;;1.80;;
9563;SDS011;4820;50.870;4.702;2022-08-19T14:27:43;2.30;;;1.98;;
9563;SDS011;4820;50.870;4.702;2022-08-19T14:30:10;1.85;;;1.60;;
9563;SDS011;4820;50.870;4.702;2022-08-19T14:32:40;1.92;;;1.73;;
9563;SDS011;4820;50.870;4.702;2022-08-19T14:35:09;2.70;;;1.65;;
9563;SDS011;4820;50.870;4.702;2022-08-19T14:37:35;3.42;;;1.70;;
9563;SDS011;4820;50.870;4.702;2022-08-19T14:40:02;2.97;;;1.70;;
9563;SDS011;4820;50.870;4.702;2022-08-19T14:42:29;2.30;;;1.95;;
9563;SDS011;4820;50.870;4.702;2022-08-19T14:45:01;1.98;;;1.50;;
9563;SDS011;4820;50.870;4.702;2022-08-19T14:47:32;2.50;;;1.70;;
9563;SDS011;4820;50.870;4.702;2022-08-19T14:49:58;2.38;;;1.70;;
9563;SDS011;4820;50.870;4.702;2022-08-19T14:52:24;1.80;;;1.70;;
9563;SDS011;4820;50.870;4.702;2022-08-19T14:54:50;4.60;;;1.67;;
9563;SDS011;4820;50.870;4.702;2022-08-19T14:57:16;1.95;;;1.75;;
9563;SDS011;4820;50.870;4.702;2022-08-19T14:59:42;4.05;;;1.80;;
9563;SDS011;4820;50.870;4.702;2022-08-19T15:02:08;2.58;;;1.65;;
9563;SDS011;4820;50.870;4.702;2022-08-19T15:04:36;4.80;;;2.00;;
9563;SDS011;4820;50.870;4.702;2022-08-19T15:07:02;3.17;;;1.70;;
9563;SDS011;4820;50.870;4.702;2022-08-19T15:09:30;3.50;;;1.80;;
9563;SDS011;4820;50.870;4.702;2022-08-19T15:11:56;4.70;;;1.60;;
9563;SDS011;4820;50.870;4.702;2022-08-19T15:14:24;3.75;;;1.40;;
9563;SDS011;4820;50.870;4.702;2022-08-19T15:16:51;2.92;;;1.80;;
9563;SDS011;4820;50.870;4.702;2022-08-19T15:19:16;5.30;;;1.70;;
9563;SDS011;4820;50.870;4.702;2022-08-19T15:21:45;1.75;;;1.23;;
9563;SDS011;4820;50.870;4.702;2022-08-19T15:24:11;1.70;;;1.13;;
9563;SDS011;4820;50.870;4.702;2022-08-19T15:26:37;1.20;;;1.10;;